Saint Paul, Indiana
Current Conditions -  °F | °C
As of 1:53 PM on Tuesday 27 Jan 2015 (Local Time) from KGEZ Reporting Station
Overcast Overcast  
Wind Chill: 25°   Ceiling: 5500
Heat Index: 30°   Visibility: 10mi
Dew Point: 14°   Wind: 5mph
Humidity: 51%   Direction: 40°NE
Pressure: 30.1"   Gusts: NA
Location:  39.43°N, 85.63°W
Report Text: KGEZ 271853Z AUTO 04004KT 10SM OVC055 M01/M10 A3010 RMK AO2 SLP203 T10111100
Loading
Personal Weather Stations






























Interactive Weather Map New forecast layout! Learn more

10-Day Weather Forecast

Advertisements
Track Severe Weather on mobile